sensor_id;sensor_type;location;lat;lon;timestamp;P1;durP1;ratioP1;P2;durP2;ratioP2
54121;SDS011;40029;58.708;50.190;2024-02-15T00:01:57;2.78;;;1.15;;
54121;SDS011;40029;58.708;50.190;2024-02-15T00:04:28;2.20;;;1.13;;
54121;SDS011;40029;58.708;50.190;2024-02-15T00:06:59;4.50;;;1.67;;
54121;SDS011;40029;58.708;50.190;2024-02-15T00:09:30;4.40;;;1.00;;
54121;SDS011;40029;58.708;50.190;2024-02-15T00:12:02;1.40;;;0.50;;
54121;SDS011;40029;58.708;50.190;2024-02-15T00:14:33;2.47;;;0.80;;
54121;SDS011;40029;58.708;50.190;2024-02-15T00:17:05;12.43;;;1.30;;
54121;SDS011;40029;58.708;50.190;2024-02-15T00:19:36;6.83;;;2.30;;
54121;SDS011;40029;58.708;50.190;2024-02-15T00:22:09;5.03;;;1.60;;
54121;SDS011;40029;58.708;50.190;2024-02-15T00:24:40;6.47;;;1.50;;
54121;SDS011;40029;58.708;50.190;2024-02-15T00:27:13;8.25;;;2.90;;
54121;SDS011;40029;58.708;50.190;2024-02-15T00:29:44;6.77;;;2.67;;
54121;SDS011;40029;58.708;50.190;2024-02-15T00:32:16;2.00;;;1.23;;
54121;SDS011;40029;58.708;50.190;2024-02-15T00:35:06;1.37;;;1.00;;
54121;SDS011;40029;58.708;50.190;2024-02-15T00:37:40;1.42;;;0.95;;
54121;SDS011;40029;58.708;50.190;2024-02-15T00:40:12;7.70;;;1.87;;
54121;SDS011;40029;58.708;50.190;2024-02-15T00:42:43;4.43;;;1.27;;
54121;SDS011;40029;58.708;50.190;2024-02-15T00:45:14;4.43;;;1.97;;
54121;SDS011;40029;58.708;50.190;2024-02-15T00:47:45;1.77;;;1.20;;
54121;SDS011;40029;58.708;50.190;2024-02-15T00:50:16;4.23;;;1.87;;
54121;SDS011;40029;58.708;50.190;2024-02-15T00:53:06;7.77;;;2.63;;
54121;SDS011;40029;58.708;50.190;2024-02-15T00:55:37;7.47;;;2.83;;
54121;SDS011;40029;58.708;50.190;2024-02-15T00:58:27;9.20;;;2.83;;
54121;SDS011;40029;58.708;50.190;2024-02-15T01:01:16;5.27;;;2.43;;
54121;SDS011;40029;58.708;50.190;2024-02-15T01:03:48;8.00;;;1.27;;
54121;SDS011;40029;58.708;50.190;2024-02-15T01:06:19;2.67;;;1.27;;
54121;SDS011;40029;58.708;50.190;2024-02-15T01:08:50;5.20;;;1.57;;
54121;SDS011;40029;58.708;50.190;2024-02-15T01:11:22;2.40;;;1.37;;
54121;SDS011;40029;58.708;50.190;2024-02-15T01:13:55;3.70;;;1.27;;
54121;SDS011;40029;58.708;50.190;2024-02-15T01:16:26;7.07;;;1.65;;
54121;SDS011;40029;58.708;50.190;2024-02-15T01:19:15;2.80;;;1.03;;
54121;SDS011;40029;58.708;50.190;2024-02-15T01:21:46;4.23;;;1.03;;
54121;SDS011;40029;58.708;50.190;2024-02-15T01:24:18;0.97;;;0.70;;
54121;SDS011;40029;58.708;50.190;2024-02-15T01:26:49;4.43;;;1.90;;
54121;SDS011;40029;58.708;50.190;2024-02-15T01:29:20;4.90;;;1.40;;
54121;SDS011;40029;58.708;50.190;2024-02-15T01:31:52;1.57;;;1.47;;
54121;SDS011;40029;58.708;50.190;2024-02-15T01:34:23;10.33;;;2.03;;
54121;SDS011;40029;58.708;50.190;2024-02-15T01:36:54;5.23;;;1.37;;
54121;SDS011;40029;58.708;50.190;2024-02-15T01:39:25;3.83;;;2.33;;
54121;SDS011;40029;58.708;50.190;2024-02-15T01:41:57;8.27;;;1.97;;
54121;SDS011;40029;58.708;50.190;2024-02-15T01:44:29;12.50;;;3.20;;
54121;SDS011;40029;58.708;50.190;2024-02-15T01:47:00;10.10;;;2.53;;
54121;SDS011;40029;58.708;50.190;2024-02-15T01:49:31;8.23;;;3.77;;
54121;SDS011;40029;58.708;50.190;2024-02-15T01:52:04;31.55;;;7.68;;
54121;SDS011;40029;58.708;50.190;2024-02-15T01:54:39;29.23;;;11.93;;
54121;SDS011;40029;58.708;50.190;2024-02-15T01:57:10;47.77;;;7.50;;
54121;SDS011;40029;58.708;50.190;2024-02-15T01:59:41;31.37;;;6.37;;
54121;SDS011;40029;58.708;50.190;2024-02-15T02:02:14;60.65;;;9.50;;
54121;SDS011;40029;58.708;50.190;2024-02-15T02:04:47;59.63;;;17.13;;
54121;SDS011;40029;58.708;50.190;2024-02-15T02:07:18;44.60;;;15.77;;
54121;SDS011;40029;58.708;50.190;2024-02-15T02:10:08;35.47;;;12.27;;
54121;SDS011;40029;58.708;50.190;2024-02-15T02:12:41;15.80;;;6.73;;
54121;SDS011;40029;58.708;50.190;2024-02-15T02:15:13;19.47;;;8.73;;
54121;SDS011;40029;58.708;50.190;2024-02-15T02:17:47;43.17;;;10.13;;
54121;SDS011;40029;58.708;50.190;2024-02-15T02:20:25;10.17;;;2.73;;
54121;SDS011;40029;58.708;50.190;2024-02-15T02:22:59;29.95;;;7.38;;
54121;SDS011;40029;58.708;50.190;2024-02-15T02:26:11;10.13;;;5.83;;
54121;SDS011;40029;58.708;50.190;2024-02-15T02:28:43;5.30;;;0.80;;
54121;SDS011;40029;58.708;50.190;2024-02-15T02:31:36;5.27;;;1.03;;
54121;SDS011;40029;58.708;50.190;2024-02-15T02:34:26;3.28;;;1.50;;
54121;SDS011;40029;58.708;50.190;2024-02-15T02:36:57;1.80;;;0.80;;
54121;SDS011;40029;58.708;50.190;2024-02-15T02:39:28;1.60;;;0.83;;
54121;SDS011;40029;58.708;50.190;2024-02-15T02:42:20;0.80;;;0.80;;
54121;SDS011;40029;58.708;50.190;2024-02-15T02:44:52;1.63;;;1.13;;
54121;SDS011;40029;58.708;50.190;2024-02-15T02:47:23;3.67;;;1.73;;
54121;SDS011;40029;58.708;50.190;2024-02-15T02:49:54;6.17;;;2.53;;
54121;SDS011;40029;58.708;50.190;2024-02-15T02:52:44;2.27;;;0.80;;
54121;SDS011;40029;58.708;50.190;2024-02-15T02:55:15;1.13;;;0.97;;
54121;SDS011;40029;58.708;50.190;2024-02-15T02:57:49;8.67;;;1.97;;
54121;SDS011;40029;58.708;50.190;2024-02-15T03:00:20;1.77;;;1.67;;
54121;SDS011;40029;58.708;50.190;2024-02-15T03:02:52;1.47;;;1.37;;
54121;SDS011;40029;58.708;50.190;2024-02-15T03:05:27;4.43;;;0.70;;
54121;SDS011;40029;58.708;50.190;2024-02-15T03:07:59;0.50;;;0.50;;
54121;SDS011;40029;58.708;50.190;2024-02-15T03:10:31;2.00;;;1.20;;
54121;SDS011;40029;58.708;50.190;2024-02-15T03:13:21;8.13;;;2.40;;
54121;SDS011;40029;58.708;50.190;2024-02-15T03:15:53;3.63;;;2.33;;
54121;SDS011;40029;58.708;50.190;2024-02-15T03:18:25;3.00;;;0.87;;
54121;SDS011;40029;58.708;50.190;2024-02-15T03:20:56;2.00;;;1.70;;
54121;SDS011;40029;58.708;50.190;2024-02-15T03:23:27;1.10;;;0.70;;
54121;SDS011;40029;58.708;50.190;2024-02-15T03:26:01;0.47;;;0.47;;
54121;SDS011;40029;58.708;50.190;2024-02-15T03:28:33;4.80;;;0.63;;
54121;SDS011;40029;58.708;50.190;2024-02-15T03:31:06;0.40;;;0.40;;
54121;SDS011;40029;58.708;50.190;2024-02-15T03:33:37;0.50;;;0.50;;
54121;SDS011;40029;58.708;50.190;2024-02-15T03:36:09;0.43;;;0.43;;
54121;SDS011;40029;58.708;50.190;2024-02-15T03:41:15;3.80;;;0.77;;
54121;SDS011;40029;58.708;50.190;2024-02-15T03:43:46;1.27;;;1.00;;
54121;SDS011;40029;58.708;50.190;2024-02-15T03:46:18;5.27;;;3.17;;
54121;SDS011;40029;58.708;50.190;2024-02-15T03:48:49;14.77;;;4.33;;
54121;SDS011;40029;58.708;50.190;2024-02-15T03:51:40;8.77;;;2.67;;
54121;SDS011;40029;58.708;50.190;2024-02-15T03:54:12;7.28;;;1.65;;
54121;SDS011;40029;58.708;50.190;2024-02-15T03:56:47;3.30;;;2.00;;
54121;SDS011;40029;58.708;50.190;2024-02-15T03:59:25;2.97;;;1.17;;
54121;SDS011;40029;58.708;50.190;2024-02-15T04:04:47;2.00;;;1.17;;
54121;SDS011;40029;58.708;50.190;2024-02-15T04:07:19;1.17;;;1.17;;
54121;SDS011;40029;58.708;50.190;2024-02-15T04:10:09;0.70;;;0.70;;
54121;SDS011;40029;58.708;50.190;2024-02-15T04:12:58;4.57;;;1.30;;
54121;SDS011;40029;58.708;50.190;2024-02-15T04:15:30;1.70;;;1.00;;
54121;SDS011;40029;58.708;50.190;2024-02-15T04:18:02;5.38;;;1.23;;
54121;SDS011;40029;58.708;50.190;2024-02-15T04:20:33;0.53;;;0.50;;
54121;SDS011;40029;58.708;50.190;2024-02-15T04:23:04;1.80;;;0.93;;
54121;SDS011;40029;58.708;50.190;2024-02-15T04:25:35;2.20;;;0.87;;
54121;SDS011;40029;58.708;50.190;2024-02-15T04:28:07;3.73;;;1.37;;
54121;SDS011;40029;58.708;50.190;2024-02-15T04:30:41;5.30;;;1.30;;
54121;SDS011;40029;58.708;50.190;2024-02-15T04:33:12;11.40;;;2.97;;
54121;SDS011;40029;58.708;50.190;2024-02-15T04:35:46;8.20;;;1.57;;
54121;SDS011;40029;58.708;50.190;2024-02-15T04:38:19;12.23;;;3.33;;
54121;SDS011;40029;58.708;50.190;2024-02-15T04:40:50;0.97;;;0.73;;
54121;SDS011;40029;58.708;50.190;2024-02-15T04:43:21;1.47;;;0.87;;
54121;SDS011;40029;58.708;50.190;2024-02-15T04:45:53;1.37;;;1.27;;
54121;SDS011;40029;58.708;50.190;2024-02-15T04:48:24;3.53;;;2.40;;
54121;SDS011;40029;58.708;50.190;2024-02-15T04:50:55;0.57;;;0.57;;
54121;SDS011;40029;58.708;50.190;2024-02-15T04:53:29;0.70;;;0.70;;
54121;SDS011;40029;58.708;50.190;2024-02-15T04:56:01;0.77;;;0.77;;
54121;SDS011;40029;58.708;50.190;2024-02-15T04:58:55;1.10;;;1.10;;
54121;SDS011;40029;58.708;50.190;2024-02-15T05:01:26;0.73;;;0.73;;
54121;SDS011;40029;58.708;50.190;2024-02-15T05:03:59;1.37;;;0.50;;
54121;SDS011;40029;58.708;50.190;2024-02-15T05:06:49;0.63;;;0.63;;
54121;SDS011;40029;58.708;50.190;2024-02-15T05:09:21;7.20;;;2.43;;
54121;SDS011;40029;58.708;50.190;2024-02-15T05:11:53;4.43;;;2.42;;
54121;SDS011;40029;58.708;50.190;2024-02-15T05:14:24;0.87;;;0.73;;
54121;SDS011;40029;58.708;50.190;2024-02-15T05:16:56;3.50;;;2.17;;
54121;SDS011;40029;58.708;50.190;2024-02-15T05:19:27;6.13;;;1.83;;
54121;SDS011;40029;58.708;50.190;2024-02-15T05:22:00;3.87;;;2.30;;
54121;SDS011;40029;58.708;50.190;2024-02-15T05:24:35;6.00;;;3.03;;
54121;SDS011;40029;58.708;50.190;2024-02-15T05:27:06;2.30;;;2.10;;
54121;SDS011;40029;58.708;50.190;2024-02-15T05:29:38;5.17;;;1.97;;
54121;SDS011;40029;58.708;50.190;2024-02-15T05:32:10;0.40;;;0.40;;
54121;SDS011;40029;58.708;50.190;2024-02-15T05:34:41;1.43;;;1.17;;
54121;SDS011;40029;58.708;50.190;2024-02-15T05:37:13;0.40;;;0.40;;
54121;SDS011;40029;58.708;50.190;2024-02-15T05:39:46;1.13;;;0.77;;
54121;SDS011;40029;58.708;50.190;2024-02-15T05:42:17;9.33;;;1.63;;
54121;SDS011;40029;58.708;50.190;2024-02-15T05:44:48;4.10;;;1.40;;
54121;SDS011;40029;58.708;50.190;2024-02-15T05:47:20;0.52;;;0.52;;
54121;SDS011;40029;58.708;50.190;2024-02-15T05:49:51;0.50;;;0.50;;
54121;SDS011;40029;58.708;50.190;2024-02-15T05:52:24;16.63;;;1.23;;
54121;SDS011;40029;58.708;50.190;2024-02-15T05:54:55;0.40;;;0.40;;
54121;SDS011;40029;58.708;50.190;2024-02-15T05:57:26;3.77;;;1.73;;
54121;SDS011;40029;58.708;50.190;2024-02-15T06:00:15;17.73;;;2.33;;
54121;SDS011;40029;58.708;50.190;2024-02-15T06:02:49;4.27;;;2.97;;
54121;SDS011;40029;58.708;50.190;2024-02-15T06:05:20;5.13;;;3.37;;
54121;SDS011;40029;58.708;50.190;2024-02-15T06:07:52;5.77;;;1.90;;
54121;SDS011;40029;58.708;50.190;2024-02-15T06:10:23;7.43;;;2.00;;
54121;SDS011;40029;58.708;50.190;2024-02-15T06:12:54;2.03;;;1.83;;
54121;SDS011;40029;58.708;50.190;2024-02-15T06:15:45;0.90;;;0.90;;
54121;SDS011;40029;58.708;50.190;2024-02-15T06:18:17;1.37;;;0.67;;
54121;SDS011;40029;58.708;50.190;2024-02-15T06:20:51;6.20;;;0.93;;
54121;SDS011;40029;58.708;50.190;2024-02-15T06:23:23;1.40;;;1.13;;
54121;SDS011;40029;58.708;50.190;2024-02-15T06:25:55;0.70;;;0.63;;
54121;SDS011;40029;58.708;50.190;2024-02-15T06:28:28;12.53;;;2.10;;
54121;SDS011;40029;58.708;50.190;2024-02-15T06:31:18;10.50;;;2.27;;
54121;SDS011;40029;58.708;50.190;2024-02-15T06:34:08;1.60;;;1.47;;
54121;SDS011;40029;58.708;50.190;2024-02-15T06:36:59;0.40;;;0.40;;
54121;SDS011;40029;58.708;50.190;2024-02-15T06:40:07;11.33;;;0.90;;
54121;SDS011;40029;58.708;50.190;2024-02-15T06:42:39;2.40;;;2.13;;
54121;SDS011;40029;58.708;50.190;2024-02-15T06:45:11;4.20;;;1.37;;
54121;SDS011;40029;58.708;50.190;2024-02-15T06:47:43;3.78;;;2.53;;
54121;SDS011;40029;58.708;50.190;2024-02-15T06:50:15;5.00;;;1.57;;
54121;SDS011;40029;58.708;50.190;2024-02-15T06:53:05;3.23;;;1.90;;
54121;SDS011;40029;58.708;50.190;2024-02-15T06:55:37;1.20;;;1.20;;
54121;SDS011;40029;58.708;50.190;2024-02-15T07:00:40;4.93;;;2.20;;
54121;SDS011;40029;58.708;50.190;2024-02-15T07:03:13;2.78;;;2.58;;
54121;SDS011;40029;58.708;50.190;2024-02-15T07:05:44;7.97;;;2.93;;
54121;SDS011;40029;58.708;50.190;2024-02-15T07:08:34;8.43;;;2.80;;
54121;SDS011;40029;58.708;50.190;2024-02-15T07:11:06;0.65;;;0.65;;
54121;SDS011;40029;58.708;50.190;2024-02-15T07:13:39;10.93;;;4.60;;
54121;SDS011;40029;58.708;50.190;2024-02-15T07:16:11;17.00;;;5.07;;
54121;SDS011;40029;58.708;50.190;2024-02-15T07:18:42;18.83;;;5.43;;
54121;SDS011;40029;58.708;50.190;2024-02-15T07:21:14;29.20;;;10.03;;
54121;SDS011;40029;58.708;50.190;2024-02-15T07:23:47;16.07;;;7.43;;
54121;SDS011;40029;58.708;50.190;2024-02-15T07:26:18;8.87;;;4.00;;
54121;SDS011;40029;58.708;50.190;2024-02-15T07:28:53;11.23;;;5.45;;
54121;SDS011;40029;58.708;50.190;2024-02-15T07:31:28;22.70;;;7.60;;
54121;SDS011;40029;58.708;50.190;2024-02-15T07:34:00;19.73;;;4.30;;
54121;SDS011;40029;58.708;50.190;2024-02-15T07:36:31;40.27;;;11.73;;
54121;SDS011;40029;58.708;50.190;2024-02-15T07:39:02;11.37;;;4.97;;
54121;SDS011;40029;58.708;50.190;2024-02-15T07:41:51;6.93;;;2.80;;
54121;SDS011;40029;58.708;50.190;2024-02-15T07:44:23;11.80;;;6.03;;
54121;SDS011;40029;58.708;50.190;2024-02-15T07:46:54;14.67;;;6.30;;
54121;SDS011;40029;58.708;50.190;2024-02-15T07:49:25;6.63;;;2.93;;
54121;SDS011;40029;58.708;50.190;2024-02-15T07:51:56;2.90;;;2.47;;
54121;SDS011;40029;58.708;50.190;2024-02-15T07:54:28;4.77;;;2.70;;
54121;SDS011;40029;58.708;50.190;2024-02-15T07:57:00;9.50;;;3.17;;
54121;SDS011;40029;58.708;50.190;2024-02-15T07:59:31;8.57;;;3.17;;
54121;SDS011;40029;58.708;50.190;2024-02-15T08:02:02;12.30;;;4.33;;
54121;SDS011;40029;58.708;50.190;2024-02-15T08:04:33;17.03;;;4.60;;
54121;SDS011;40029;58.708;50.190;2024-02-15T08:07:10;4.03;;;2.17;;
54121;SDS011;40029;58.708;50.190;2024-02-15T08:10:00;12.80;;;2.63;;
54121;SDS011;40029;58.708;50.190;2024-02-15T08:12:31;17.13;;;4.77;;
54121;SDS011;40029;58.708;50.190;2024-02-15T08:15:21;18.30;;;7.20;;
54121;SDS011;40029;58.708;50.190;2024-02-15T08:17:54;17.57;;;5.47;;
54121;SDS011;40029;58.708;50.190;2024-02-15T08:20:25;13.60;;;3.50;;
54121;SDS011;40029;58.708;50.190;2024-02-15T08:23:01;12.70;;;4.47;;
54121;SDS011;40029;58.708;50.190;2024-02-15T08:25:33;23.67;;;6.47;;
54121;SDS011;40029;58.708;50.190;2024-02-15T08:28:04;9.57;;;3.87;;
54121;SDS011;40029;58.708;50.190;2024-02-15T08:30:37;14.38;;;5.25;;
54121;SDS011;40029;58.708;50.190;2024-02-15T08:33:08;12.17;;;4.87;;
54121;SDS011;40029;58.708;50.190;2024-02-15T08:35:41;21.40;;;6.32;;
54121;SDS011;40029;58.708;50.190;2024-02-15T08:38:31;9.87;;;3.47;;
54121;SDS011;40029;58.708;50.190;2024-02-15T08:41:02;9.37;;;3.60;;
54121;SDS011;40029;58.708;50.190;2024-02-15T08:43:35;13.48;;;3.97;;
54121;SDS011;40029;58.708;50.190;2024-02-15T08:46:09;10.33;;;4.27;;
54121;SDS011;40029;58.708;50.190;2024-02-15T08:48:43;16.83;;;6.93;;
54121;SDS011;40029;58.708;50.190;2024-02-15T08:51:15;21.27;;;7.37;;
54121;SDS011;40029;58.708;50.190;2024-02-15T08:53:46;33.73;;;9.03;;
54121;SDS011;40029;58.708;50.190;2024-02-15T08:56:18;27.00;;;8.13;;
54121;SDS011;40029;58.708;50.190;2024-02-15T08:58:49;20.93;;;6.73;;
54121;SDS011;40029;58.708;50.190;2024-02-15T09:01:20;23.90;;;6.33;;
54121;SDS011;40029;58.708;50.190;2024-02-15T09:03:51;23.37;;;6.63;;
54121;SDS011;40029;58.708;50.190;2024-02-15T09:06:22;28.37;;;6.20;;
54121;SDS011;40029;58.708;50.190;2024-02-15T09:08:53;21.67;;;7.60;;
54121;SDS011;40029;58.708;50.190;2024-02-15T09:11:29;15.93;;;5.93;;
54121;SDS011;40029;58.708;50.190;2024-02-15T09:14:00;13.33;;;5.17;;
54121;SDS011;40029;58.708;50.190;2024-02-15T09:16:31;22.23;;;6.93;;
54121;SDS011;40029;58.708;50.190;2024-02-15T09:19:22;16.23;;;6.17;;
54121;SDS011;40029;58.708;50.190;2024-02-15T09:21:55;21.27;;;5.87;;
54121;SDS011;40029;58.708;50.190;2024-02-15T09:24:26;26.03;;;6.63;;
54121;SDS011;40029;58.708;50.190;2024-02-15T09:26:59;22.48;;;7.80;;
54121;SDS011;40029;58.708;50.190;2024-02-15T09:29:31;12.30;;;6.13;;
54121;SDS011;40029;58.708;50.190;2024-02-15T09:32:05;16.57;;;5.47;;
54121;SDS011;40029;58.708;50.190;2024-02-15T09:34:37;15.57;;;5.80;;
54121;SDS011;40029;58.708;50.190;2024-02-15T09:37:08;13.67;;;6.67;;
54121;SDS011;40029;58.708;50.190;2024-02-15T09:39:58;18.23;;;6.60;;
54121;SDS011;40029;58.708;50.190;2024-02-15T09:42:34;9.53;;;4.63;;
54121;SDS011;40029;58.708;50.190;2024-02-15T09:45:05;11.43;;;5.00;;
54121;SDS011;40029;58.708;50.190;2024-02-15T09:47:37;10.37;;;4.37;;
54121;SDS011;40029;58.708;50.190;2024-02-15T09:50:11;7.40;;;3.53;;
54121;SDS011;40029;58.708;50.190;2024-02-15T09:52:45;5.13;;;3.10;;
54121;SDS011;40029;58.708;50.190;2024-02-15T09:55:20;9.80;;;2.77;;
54121;SDS011;40029;58.708;50.190;2024-02-15T09:57:54;13.57;;;4.20;;
54121;SDS011;40029;58.708;50.190;2024-02-15T10:00:25;6.93;;;3.20;;
54121;SDS011;40029;58.708;50.190;2024-02-15T10:03:18;12.97;;;4.23;;
54121;SDS011;40029;58.708;50.190;2024-02-15T10:05:53;11.23;;;4.33;;
54121;SDS011;40029;58.708;50.190;2024-02-15T10:08:43;7.13;;;4.00;;
54121;SDS011;40029;58.708;50.190;2024-02-15T10:11:15;6.87;;;3.83;;
54121;SDS011;40029;58.708;50.190;2024-02-15T10:13:46;11.47;;;5.03;;
54121;SDS011;40029;58.708;50.190;2024-02-15T10:16:18;31.53;;;8.53;;
54121;SDS011;40029;58.708;50.190;2024-02-15T10:18:50;36.27;;;10.97;;
54121;SDS011;40029;58.708;50.190;2024-02-15T10:21:27;41.27;;;11.03;;
54121;SDS011;40029;58.708;50.190;2024-02-15T10:24:07;9.33;;;5.23;;
54121;SDS011;40029;58.708;50.190;2024-02-15T10:26:40;15.23;;;4.93;;
54121;SDS011;40029;58.708;50.190;2024-02-15T10:29:11;153.50;;;36.83;;
54121;SDS011;40029;58.708;50.190;2024-02-15T10:34:43;64.10;;;15.80;;
54121;SDS011;40029;58.708;50.190;2024-02-15T10:37:18;34.00;;;10.27;;
54121;SDS011;40029;58.708;50.190;2024-02-15T10:40:12;34.85;;;12.18;;
54121;SDS011;40029;58.708;50.190;2024-02-15T10:43:05;28.33;;;9.70;;
54121;SDS011;40029;58.708;50.190;2024-02-15T10:45:36;40.90;;;10.43;;
54121;SDS011;40029;58.708;50.190;2024-02-15T10:48:08;66.60;;;18.87;;
54121;SDS011;40029;58.708;50.190;2024-02-15T10:50:40;57.37;;;15.67;;
54121;SDS011;40029;58.708;50.190;2024-02-15T10:53:30;44.63;;;13.63;;
54121;SDS011;40029;58.708;50.190;2024-02-15T10:59:18;39.00;;;11.20;;
54121;SDS011;40029;58.708;50.190;2024-02-15T11:01:58;84.13;;;19.63;;
54121;SDS011;40029;58.708;50.190;2024-02-15T11:04:31;42.22;;;14.13;;
54121;SDS011;40029;58.708;50.190;2024-02-15T11:07:05;42.83;;;11.50;;
54121;SDS011;40029;58.708;50.190;2024-02-15T11:09:37;55.97;;;11.27;;
54121;SDS011;40029;58.708;50.190;2024-02-15T11:12:09;54.00;;;13.17;;
54121;SDS011;40029;58.708;50.190;2024-02-15T11:14:44;33.45;;;11.93;;
54121;SDS011;40029;58.708;50.190;2024-02-15T11:20:58;34.23;;;11.67;;
54121;SDS011;40029;58.708;50.190;2024-02-15T11:23:05;43.10;;;12.50;;
54121;SDS011;40029;58.708;50.190;2024-02-15T11:25:38;31.67;;;10.67;;
54121;SDS011;40029;58.708;50.190;2024-02-15T11:30:53;36.40;;;10.48;;
54121;SDS011;40029;58.708;50.190;2024-02-15T11:33:33;32.53;;;9.27;;
54121;SDS011;40029;58.708;50.190;2024-02-15T11:36:06;36.53;;;10.40;;
54121;SDS011;40029;58.708;50.190;2024-02-15T11:38:39;36.80;;;10.47;;
54121;SDS011;40029;58.708;50.190;2024-02-15T11:41:19;30.77;;;9.10;;
54121;SDS011;40029;58.708;50.190;2024-02-15T11:44:15;36.53;;;10.43;;
54121;SDS011;40029;58.708;50.190;2024-02-15T11:49:37;38.07;;;9.17;;
54121;SDS011;40029;58.708;50.190;2024-02-15T11:52:10;43.27;;;11.87;;
54121;SDS011;40029;58.708;50.190;2024-02-15T11:54:42;44.73;;;10.97;;
54121;SDS011;40029;58.708;50.190;2024-02-15T11:57:13;45.03;;;12.90;;
54121;SDS011;40029;58.708;50.190;2024-02-15T11:59:56;46.33;;;11.57;;
54121;SDS011;40029;58.708;50.190;2024-02-15T12:02:46;40.53;;;11.00;;
54121;SDS011;40029;58.708;50.190;2024-02-15T12:05:54;44.27;;;12.97;;
54121;SDS011;40029;58.708;50.190;2024-02-15T12:08:44;39.77;;;11.33;;
54121;SDS011;40029;58.708;50.190;2024-02-15T12:11:37;35.17;;;11.83;;
54121;SDS011;40029;58.708;50.190;2024-02-15T12:14:28;23.67;;;7.17;;
54121;SDS011;40029;58.708;50.190;2024-02-15T12:17:17;28.17;;;8.27;;
54121;SDS011;40029;58.708;50.190;2024-02-15T12:20:08;26.97;;;8.07;;
54121;SDS011;40029;58.708;50.190;2024-02-15T12:22:48;32.43;;;9.03;;
54121;SDS011;40029;58.708;50.190;2024-02-15T12:25:20;28.07;;;8.23;;
54121;SDS011;40029;58.708;50.190;2024-02-15T12:27:53;19.27;;;5.70;;
54121;SDS011;40029;58.708;50.190;2024-02-15T12:30:25;16.45;;;5.38;;
54121;SDS011;40029;58.708;50.190;2024-02-15T12:33:10;17.67;;;4.87;;
54121;SDS011;40029;58.708;50.190;2024-02-15T12:35:42;16.03;;;5.67;;
54121;SDS011;40029;58.708;50.190;2024-02-15T12:38:32;10.77;;;4.50;;
54121;SDS011;40029;58.708;50.190;2024-02-15T12:41:18;11.70;;;4.13;;
54121;SDS011;40029;58.708;50.190;2024-02-15T12:43:53;12.63;;;3.90;;
54121;SDS011;40029;58.708;50.190;2024-02-15T12:46:24;18.73;;;5.97;;
54121;SDS011;40029;58.708;50.190;2024-02-15T12:49:07;19.75;;;5.63;;
54121;SDS011;40029;58.708;50.190;2024-02-15T12:57:41;20.70;;;7.93;;
54121;SDS011;40029;58.708;50.190;2024-02-15T13:00:20;23.60;;;8.30;;
54121;SDS011;40029;58.708;50.190;2024-02-15T13:02:52;26.37;;;8.67;;
54121;SDS011;40029;58.708;50.190;2024-02-15T13:05:26;17.73;;;7.20;;
54121;SDS011;40029;58.708;50.190;2024-02-15T13:07:57;26.07;;;9.33;;
54121;SDS011;40029;58.708;50.190;2024-02-15T13:10:29;29.43;;;8.07;;
54121;SDS011;40029;58.708;50.190;2024-02-15T13:13:02;27.40;;;8.98;;
54121;SDS011;40029;58.708;50.190;2024-02-15T13:15:33;34.37;;;10.07;;
54121;SDS011;40029;58.708;50.190;2024-02-15T13:18:23;37.40;;;12.20;;
54121;SDS011;40029;58.708;50.190;2024-02-15T13:20:55;34.23;;;11.43;;
54121;SDS011;40029;58.708;50.190;2024-02-15T13:23:26;44.27;;;12.37;;
54121;SDS011;40029;58.708;50.190;2024-02-15T13:25:57;49.07;;;14.40;;
54121;SDS011;40029;58.708;50.190;2024-02-15T13:28:32;34.80;;;12.30;;
54121;SDS011;40029;58.708;50.190;2024-02-15T13:31:04;48.30;;;16.97;;
54121;SDS011;40029;58.708;50.190;2024-02-15T13:33:35;41.80;;;15.53;;
54121;SDS011;40029;58.708;50.190;2024-02-15T13:36:06;65.57;;;15.30;;
54121;SDS011;40029;58.708;50.190;2024-02-15T13:38:41;55.53;;;17.27;;
54121;SDS011;40029;58.708;50.190;2024-02-15T13:41:12;33.90;;;11.60;;
54121;SDS011;40029;58.708;50.190;2024-02-15T13:43:43;38.10;;;14.40;;
54121;SDS011;40029;58.708;50.190;2024-02-15T13:46:14;66.17;;;21.20;;
54121;SDS011;40029;58.708;50.190;2024-02-15T13:48:46;51.90;;;16.17;;
54121;SDS011;40029;58.708;50.190;2024-02-15T13:51:18;40.20;;;15.97;;
54121;SDS011;40029;58.708;50.190;2024-02-15T13:53:50;44.90;;;12.80;;
54121;SDS011;40029;58.708;50.190;2024-02-15T13:56:21;45.27;;;12.63;;
54121;SDS011;40029;58.708;50.190;2024-02-15T13:59:11;26.87;;;10.60;;
54121;SDS011;40029;58.708;50.190;2024-02-15T14:01:42;36.80;;;11.57;;
54121;SDS011;40029;58.708;50.190;2024-02-15T14:04:16;41.13;;;10.73;;
54121;SDS011;40029;58.708;50.190;2024-02-15T14:06:47;31.30;;;11.70;;
54121;SDS011;40029;58.708;50.190;2024-02-15T14:09:19;46.20;;;13.43;;
54121;SDS011;40029;58.708;50.190;2024-02-15T14:11:50;38.83;;;11.13;;
54121;SDS011;40029;58.708;50.190;2024-02-15T14:14:40;47.17;;;11.90;;
54121;SDS011;40029;58.708;50.190;2024-02-15T14:17:11;43.83;;;14.43;;
54121;SDS011;40029;58.708;50.190;2024-02-15T14:19:42;64.33;;;16.57;;
54121;SDS011;40029;58.708;50.190;2024-02-15T14:22:14;91.97;;;19.37;;
54121;SDS011;40029;58.708;50.190;2024-02-15T14:24:46;84.53;;;18.83;;
54121;SDS011;40029;58.708;50.190;2024-02-15T14:27:18;74.77;;;24.30;;
54121;SDS011;40029;58.708;50.190;2024-02-15T14:29:49;87.93;;;25.97;;
54121;SDS011;40029;58.708;50.190;2024-02-15T14:32:39;69.03;;;21.53;;
54121;SDS011;40029;58.708;50.190;2024-02-15T14:35:32;91.13;;;25.50;;
54121;SDS011;40029;58.708;50.190;2024-02-15T14:38:08;109.90;;;23.23;;
54121;SDS011;40029;58.708;50.190;2024-02-15T14:40:42;100.20;;;24.53;;
54121;SDS011;40029;58.708;50.190;2024-02-15T14:43:16;110.87;;;26.67;;
54121;SDS011;40029;58.708;50.190;2024-02-15T14:45:48;104.87;;;30.10;;
54121;SDS011;40029;58.708;50.190;2024-02-15T14:48:20;145.27;;;33.67;;
54121;SDS011;40029;58.708;50.190;2024-02-15T14:51:14;107.57;;;26.43;;
54121;SDS011;40029;58.708;50.190;2024-02-15T14:53:45;61.70;;;21.53;;
54121;SDS011;40029;58.708;50.190;2024-02-15T14:56:17;80.33;;;23.40;;
54121;SDS011;40029;58.708;50.190;2024-02-15T14:58:49;81.68;;;24.08;;
54121;SDS011;40029;58.708;50.190;2024-02-15T15:01:20;119.03;;;30.70;;
54121;SDS011;40029;58.708;50.190;2024-02-15T15:03:55;116.47;;;28.23;;
54121;SDS011;40029;58.708;50.190;2024-02-15T15:06:28;96.83;;;23.83;;
54121;SDS011;40029;58.708;50.190;2024-02-15T15:09:18;48.57;;;17.90;;
54121;SDS011;40029;58.708;50.190;2024-02-15T15:12:07;79.93;;;18.33;;
54121;SDS011;40029;58.708;50.190;2024-02-15T15:14:56;42.90;;;13.07;;
54121;SDS011;40029;58.708;50.190;2024-02-15T15:17:27;58.60;;;17.60;;
54121;SDS011;40029;58.708;50.190;2024-02-15T15:19:58;51.37;;;14.67;;
54121;SDS011;40029;58.708;50.190;2024-02-15T15:22:31;72.22;;;15.23;;
54121;SDS011;40029;58.708;50.190;2024-02-15T15:25:05;33.80;;;11.27;;
54121;SDS011;40029;58.708;50.190;2024-02-15T15:27:40;50.77;;;14.40;;
54121;SDS011;40029;58.708;50.190;2024-02-15T15:30:11;78.30;;;18.63;;
54121;SDS011;40029;58.708;50.190;2024-02-15T15:32:42;44.97;;;15.23;;
54121;SDS011;40029;58.708;50.190;2024-02-15T15:35:16;59.93;;;18.20;;
54121;SDS011;40029;58.708;50.190;2024-02-15T15:37:50;66.63;;;16.83;;
54121;SDS011;40029;58.708;50.190;2024-02-15T15:40:22;50.87;;;18.60;;